sensor_id;sensor_type;location;lat;lon;timestamp;P1;durP1;ratioP1;P2;durP2;ratioP2
30707;SDS011;17458;48.958;8.284;2024-01-16T00:01:46;6.37;;;5.53;;
30707;SDS011;17458;48.958;8.284;2024-01-16T00:04:30;5.83;;;5.23;;
30707;SDS011;17458;48.958;8.284;2024-01-16T00:07:14;6.03;;;5.53;;
30707;SDS011;17458;48.958;8.284;2024-01-16T00:09:58;9.50;;;5.60;;
30707;SDS011;17458;48.958;8.284;2024-01-16T00:12:42;7.03;;;6.10;;
30707;SDS011;17458;48.958;8.284;2024-01-16T00:15:26;10.10;;;6.63;;
30707;SDS011;17458;48.958;8.284;2024-01-16T00:18:10;5.40;;;4.00;;
30707;SDS011;17458;48.958;8.284;2024-01-16T00:20:54;8.37;;;6.57;;
30707;SDS011;17458;48.958;8.284;2024-01-16T00:23:37;9.63;;;6.03;;
30707;SDS011;17458;48.958;8.284;2024-01-16T00:26:22;9.67;;;5.93;;
30707;SDS011;17458;48.958;8.284;2024-01-16T00:29:06;11.33;;;5.87;;
30707;SDS011;17458;48.958;8.284;2024-01-16T00:31:50;6.63;;;5.93;;
30707;SDS011;17458;48.958;8.284;2024-01-16T00:34:34;5.73;;;5.17;;
30707;SDS011;17458;48.958;8.284;2024-01-16T00:37:18;14.93;;;4.87;;
30707;SDS011;17458;48.958;8.284;2024-01-16T00:40:02;8.40;;;5.07;;
30707;SDS011;17458;48.958;8.284;2024-01-16T00:42:48;7.10;;;5.15;;
30707;SDS011;17458;48.958;8.284;2024-01-16T00:45:31;7.00;;;5.57;;
30707;SDS011;17458;48.958;8.284;2024-01-16T00:48:16;9.90;;;6.37;;
30707;SDS011;17458;48.958;8.284;2024-01-16T00:50:59;5.77;;;5.23;;
30707;SDS011;17458;48.958;8.284;2024-01-16T00:53:43;8.53;;;5.87;;
30707;SDS011;17458;48.958;8.284;2024-01-16T00:56:27;7.13;;;5.63;;
30707;SDS011;17458;48.958;8.284;2024-01-16T00:59:11;8.27;;;5.53;;
30707;SDS011;17458;48.958;8.284;2024-01-16T01:01:55;17.93;;;6.33;;
30707;SDS011;17458;48.958;8.284;2024-01-16T01:04:39;8.50;;;6.13;;
30707;SDS011;17458;48.958;8.284;2024-01-16T01:07:25;11.80;;;5.07;;
30707;SDS011;17458;48.958;8.284;2024-01-16T01:10:09;11.00;;;5.07;;
30707;SDS011;17458;48.958;8.284;2024-01-16T01:12:53;6.03;;;5.53;;
30707;SDS011;17458;48.958;8.284;2024-01-16T01:15:37;8.13;;;5.93;;
30707;SDS011;17458;48.958;8.284;2024-01-16T01:18:21;12.23;;;6.23;;
30707;SDS011;17458;48.958;8.284;2024-01-16T01:21:06;8.23;;;5.40;;
30707;SDS011;17458;48.958;8.284;2024-01-16T01:23:50;6.07;;;5.53;;
30707;SDS011;17458;48.958;8.284;2024-01-16T01:26:34;6.03;;;5.10;;
30707;SDS011;17458;48.958;8.284;2024-01-16T01:29:18;10.33;;;5.47;;
30707;SDS011;17458;48.958;8.284;2024-01-16T01:32:02;7.90;;;5.57;;
30707;SDS011;17458;48.958;8.284;2024-01-16T01:34:47;9.00;;;5.97;;
30707;SDS011;17458;48.958;8.284;2024-01-16T01:37:31;6.97;;;5.80;;
30707;SDS011;17458;48.958;8.284;2024-01-16T01:40:15;8.00;;;5.77;;
30707;SDS011;17458;48.958;8.284;2024-01-16T01:43:16;8.77;;;6.73;;
30707;SDS011;17458;48.958;8.284;2024-01-16T01:46:17;6.67;;;5.10;;
30707;SDS011;17458;48.958;8.284;2024-01-16T01:49:02;6.97;;;5.70;;
30707;SDS011;17458;48.958;8.284;2024-01-16T01:51:47;5.77;;;5.27;;
30707;SDS011;17458;48.958;8.284;2024-01-16T01:54:31;6.57;;;5.80;;
30707;SDS011;17458;48.958;8.284;2024-01-16T01:57:18;8.87;;;6.00;;
30707;SDS011;17458;48.958;8.284;2024-01-16T02:00:03;10.13;;;7.17;;
30707;SDS011;17458;48.958;8.284;2024-01-16T02:02:56;7.67;;;5.97;;
30707;SDS011;17458;48.958;8.284;2024-01-16T02:05:40;7.50;;;6.47;;
30707;SDS011;17458;48.958;8.284;2024-01-16T02:08:24;9.67;;;5.93;;
30707;SDS011;17458;48.958;8.284;2024-01-16T02:11:08;6.80;;;5.90;;
30707;SDS011;17458;48.958;8.284;2024-01-16T02:13:53;9.73;;;6.73;;
30707;SDS011;17458;48.958;8.284;2024-01-16T02:16:38;8.90;;;6.23;;
30707;SDS011;17458;48.958;8.284;2024-01-16T02:19:23;7.13;;;5.40;;
30707;SDS011;17458;48.958;8.284;2024-01-16T02:22:09;6.90;;;5.93;;
30707;SDS011;17458;48.958;8.284;2024-01-16T02:24:59;9.00;;;6.10;;
30707;SDS011;17458;48.958;8.284;2024-01-16T02:27:43;6.87;;;6.03;;
30707;SDS011;17458;48.958;8.284;2024-01-16T02:30:27;6.00;;;4.97;;
30707;SDS011;17458;48.958;8.284;2024-01-16T02:33:11;5.47;;;4.87;;
30707;SDS011;17458;48.958;8.284;2024-01-16T02:35:55;6.50;;;5.90;;
30707;SDS011;17458;48.958;8.284;2024-01-16T02:38:39;7.60;;;5.77;;
30707;SDS011;17458;48.958;8.284;2024-01-16T02:41:23;8.43;;;5.57;;
30707;SDS011;17458;48.958;8.284;2024-01-16T02:44:07;6.23;;;5.00;;
30707;SDS011;17458;48.958;8.284;2024-01-16T02:46:51;12.57;;;6.73;;
30707;SDS011;17458;48.958;8.284;2024-01-16T02:49:35;8.57;;;6.03;;
30707;SDS011;17458;48.958;8.284;2024-01-16T02:52:20;6.27;;;5.33;;
30707;SDS011;17458;48.958;8.284;2024-01-16T02:55:05;7.40;;;6.20;;
30707;SDS011;17458;48.958;8.284;2024-01-16T02:57:50;9.23;;;5.97;;
30707;SDS011;17458;48.958;8.284;2024-01-16T03:00:34;9.13;;;6.10;;
30707;SDS011;17458;48.958;8.284;2024-01-16T03:03:18;11.87;;;6.20;;
30707;SDS011;17458;48.958;8.284;2024-01-16T03:06:03;7.20;;;5.73;;
30707;SDS011;17458;48.958;8.284;2024-01-16T03:08:47;8.10;;;6.27;;
30707;SDS011;17458;48.958;8.284;2024-01-16T03:11:31;6.47;;;5.07;;
30707;SDS011;17458;48.958;8.284;2024-01-16T03:14:17;10.27;;;6.67;;
30707;SDS011;17458;48.958;8.284;2024-01-16T03:17:02;8.47;;;6.00;;
30707;SDS011;17458;48.958;8.284;2024-01-16T03:19:46;9.73;;;5.63;;
30707;SDS011;17458;48.958;8.284;2024-01-16T03:22:30;7.47;;;6.27;;
30707;SDS011;17458;48.958;8.284;2024-01-16T03:25:15;9.23;;;5.47;;
30707;SDS011;17458;48.958;8.284;2024-01-16T03:28:00;8.57;;;5.80;;
30707;SDS011;17458;48.958;8.284;2024-01-16T03:30:44;7.07;;;6.37;;
30707;SDS011;17458;48.958;8.284;2024-01-16T03:33:28;10.93;;;5.70;;
30707;SDS011;17458;48.958;8.284;2024-01-16T03:36:11;14.63;;;6.67;;
30707;SDS011;17458;48.958;8.284;2024-01-16T03:38:56;11.67;;;6.67;;
30707;SDS011;17458;48.958;8.284;2024-01-16T03:41:41;10.03;;;6.50;;
30707;SDS011;17458;48.958;8.284;2024-01-16T03:44:25;6.53;;;5.80;;
30707;SDS011;17458;48.958;8.284;2024-01-16T03:47:09;7.17;;;6.03;;
30707;SDS011;17458;48.958;8.284;2024-01-16T03:49:53;6.40;;;5.80;;
30707;SDS011;17458;48.958;8.284;2024-01-16T03:52:37;8.07;;;6.27;;
30707;SDS011;17458;48.958;8.284;2024-01-16T03:55:21;8.27;;;6.03;;
30707;SDS011;17458;48.958;8.284;2024-01-16T03:58:05;12.40;;;6.30;;
30707;SDS011;17458;48.958;8.284;2024-01-16T04:00:49;13.37;;;6.60;;
30707;SDS011;17458;48.958;8.284;2024-01-16T04:03:37;9.43;;;6.73;;
30707;SDS011;17458;48.958;8.284;2024-01-16T04:06:22;7.57;;;5.93;;
30707;SDS011;17458;48.958;8.284;2024-01-16T04:09:07;10.07;;;6.80;;
30707;SDS011;17458;48.958;8.284;2024-01-16T04:11:52;14.20;;;7.97;;
30707;SDS011;17458;48.958;8.284;2024-01-16T04:14:36;9.83;;;5.90;;
30707;SDS011;17458;48.958;8.284;2024-01-16T04:17:20;6.37;;;5.87;;
30707;SDS011;17458;48.958;8.284;2024-01-16T04:20:04;8.77;;;6.37;;
30707;SDS011;17458;48.958;8.284;2024-01-16T04:22:50;16.57;;;6.93;;
30707;SDS011;17458;48.958;8.284;2024-01-16T04:25:34;6.47;;;5.87;;
30707;SDS011;17458;48.958;8.284;2024-01-16T04:28:18;7.80;;;6.30;;
30707;SDS011;17458;48.958;8.284;2024-01-16T04:31:03;14.10;;;5.43;;
30707;SDS011;17458;48.958;8.284;2024-01-16T04:33:48;9.97;;;6.57;;
30707;SDS011;17458;48.958;8.284;2024-01-16T04:36:31;6.10;;;5.50;;
30707;SDS011;17458;48.958;8.284;2024-01-16T04:39:15;9.77;;;6.37;;
30707;SDS011;17458;48.958;8.284;2024-01-16T04:41:59;12.17;;;7.77;;
30707;SDS011;17458;48.958;8.284;2024-01-16T04:44:43;9.70;;;5.97;;
30707;SDS011;17458;48.958;8.284;2024-01-16T04:47:28;10.97;;;6.93;;
30707;SDS011;17458;48.958;8.284;2024-01-16T04:50:12;5.93;;;5.33;;
30707;SDS011;17458;48.958;8.284;2024-01-16T04:52:56;10.63;;;7.67;;
30707;SDS011;17458;48.958;8.284;2024-01-16T04:55:41;9.07;;;5.67;;
30707;SDS011;17458;48.958;8.284;2024-01-16T04:58:25;10.53;;;7.43;;
30707;SDS011;17458;48.958;8.284;2024-01-16T05:01:09;13.10;;;7.57;;
30707;SDS011;17458;48.958;8.284;2024-01-16T05:03:53;13.47;;;6.63;;
30707;SDS011;17458;48.958;8.284;2024-01-16T05:06:38;7.37;;;6.63;;
30707;SDS011;17458;48.958;8.284;2024-01-16T05:09:22;15.13;;;7.30;;
30707;SDS011;17458;48.958;8.284;2024-01-16T05:12:06;7.23;;;6.53;;
30707;SDS011;17458;48.958;8.284;2024-01-16T05:14:50;12.03;;;6.40;;
30707;SDS011;17458;48.958;8.284;2024-01-16T05:17:34;8.67;;;6.57;;
30707;SDS011;17458;48.958;8.284;2024-01-16T05:20:19;9.77;;;7.53;;
30707;SDS011;17458;48.958;8.284;2024-01-16T05:23:03;10.03;;;6.77;;
30707;SDS011;17458;48.958;8.284;2024-01-16T05:25:47;15.73;;;7.23;;
30707;SDS011;17458;48.958;8.284;2024-01-16T05:28:31;9.67;;;6.97;;
30707;SDS011;17458;48.958;8.284;2024-01-16T05:31:15;16.23;;;8.07;;
30707;SDS011;17458;48.958;8.284;2024-01-16T05:33:59;12.23;;;7.73;;
30707;SDS011;17458;48.958;8.284;2024-01-16T05:36:43;9.73;;;7.57;;
30707;SDS011;17458;48.958;8.284;2024-01-16T05:39:27;10.43;;;7.40;;
30707;SDS011;17458;48.958;8.284;2024-01-16T05:42:11;12.30;;;7.70;;
30707;SDS011;17458;48.958;8.284;2024-01-16T05:44:56;16.80;;;8.57;;
30707;SDS011;17458;48.958;8.284;2024-01-16T05:47:40;11.30;;;6.87;;
30707;SDS011;17458;48.958;8.284;2024-01-16T05:50:23;6.33;;;5.70;;
30707;SDS011;17458;48.958;8.284;2024-01-16T05:53:07;9.50;;;6.70;;
30707;SDS011;17458;48.958;8.284;2024-01-16T05:55:51;11.47;;;8.60;;
30707;SDS011;17458;48.958;8.284;2024-01-16T05:58:38;12.13;;;7.80;;
30707;SDS011;17458;48.958;8.284;2024-01-16T06:01:23;10.60;;;7.17;;
30707;SDS011;17458;48.958;8.284;2024-01-16T06:04:07;9.13;;;7.53;;
30707;SDS011;17458;48.958;8.284;2024-01-16T06:06:51;13.07;;;7.40;;
30707;SDS011;17458;48.958;8.284;2024-01-16T06:09:38;10.93;;;8.30;;
30707;SDS011;17458;48.958;8.284;2024-01-16T06:12:25;15.13;;;7.43;;
30707;SDS011;17458;48.958;8.284;2024-01-16T06:15:09;13.23;;;7.53;;
30707;SDS011;17458;48.958;8.284;2024-01-16T06:17:55;8.90;;;7.37;;
30707;SDS011;17458;48.958;8.284;2024-01-16T06:20:39;14.00;;;7.67;;
30707;SDS011;17458;48.958;8.284;2024-01-16T06:23:23;9.33;;;7.27;;
30707;SDS011;17458;48.958;8.284;2024-01-16T06:26:07;8.13;;;6.87;;
30707;SDS011;17458;48.958;8.284;2024-01-16T06:28:52;13.10;;;7.50;;
30707;SDS011;17458;48.958;8.284;2024-01-16T06:31:35;10.40;;;7.30;;
30707;SDS011;17458;48.958;8.284;2024-01-16T06:34:19;10.63;;;6.53;;
30707;SDS011;17458;48.958;8.284;2024-01-16T06:37:04;12.73;;;8.40;;
30707;SDS011;17458;48.958;8.284;2024-01-16T06:39:47;14.70;;;7.57;;
30707;SDS011;17458;48.958;8.284;2024-01-16T06:42:31;11.00;;;6.93;;
30707;SDS011;17458;48.958;8.284;2024-01-16T06:45:15;8.10;;;6.83;;
30707;SDS011;17458;48.958;8.284;2024-01-16T06:48:00;11.90;;;7.73;;
30707;SDS011;17458;48.958;8.284;2024-01-16T06:50:44;10.93;;;8.23;;
30707;SDS011;17458;48.958;8.284;2024-01-16T06:53:28;11.77;;;7.47;;
30707;SDS011;17458;48.958;8.284;2024-01-16T06:56:12;20.53;;;8.30;;
30707;SDS011;17458;48.958;8.284;2024-01-16T06:58:55;11.83;;;7.17;;
30707;SDS011;17458;48.958;8.284;2024-01-16T07:01:39;15.13;;;7.67;;
30707;SDS011;17458;48.958;8.284;2024-01-16T07:04:23;15.53;;;7.33;;
30707;SDS011;17458;48.958;8.284;2024-01-16T07:07:07;11.27;;;6.47;;
30707;SDS011;17458;48.958;8.284;2024-01-16T07:09:51;13.17;;;7.47;;
30707;SDS011;17458;48.958;8.284;2024-01-16T07:12:35;8.43;;;6.57;;
30707;SDS011;17458;48.958;8.284;2024-01-16T07:15:19;11.17;;;7.93;;
30707;SDS011;17458;48.958;8.284;2024-01-16T07:18:03;11.80;;;9.20;;
30707;SDS011;17458;48.958;8.284;2024-01-16T07:20:47;14.53;;;8.50;;
30707;SDS011;17458;48.958;8.284;2024-01-16T07:23:31;11.43;;;8.23;;
30707;SDS011;17458;48.958;8.284;2024-01-16T07:26:15;18.77;;;9.07;;
30707;SDS011;17458;48.958;8.284;2024-01-16T07:29:00;15.67;;;8.80;;
30707;SDS011;17458;48.958;8.284;2024-01-16T07:31:44;15.67;;;8.47;;
30707;SDS011;17458;48.958;8.284;2024-01-16T07:34:28;9.63;;;7.63;;
30707;SDS011;17458;48.958;8.284;2024-01-16T07:37:12;13.07;;;8.23;;
30707;SDS011;17458;48.958;8.284;2024-01-16T07:39:57;10.87;;;6.83;;
30707;SDS011;17458;48.958;8.284;2024-01-16T07:42:41;14.07;;;8.77;;
30707;SDS011;17458;48.958;8.284;2024-01-16T07:45:25;12.67;;;8.50;;
30707;SDS011;17458;48.958;8.284;2024-01-16T07:48:08;17.60;;;8.53;;
30707;SDS011;17458;48.958;8.284;2024-01-16T07:50:52;14.30;;;8.40;;
30707;SDS011;17458;48.958;8.284;2024-01-16T07:53:36;15.73;;;7.30;;
30707;SDS011;17458;48.958;8.284;2024-01-16T07:56:20;10.53;;;8.23;;
30707;SDS011;17458;48.958;8.284;2024-01-16T07:59:05;11.03;;;8.20;;
30707;SDS011;17458;48.958;8.284;2024-01-16T08:01:49;12.77;;;7.60;;
30707;SDS011;17458;48.958;8.284;2024-01-16T08:04:33;12.20;;;8.93;;
30707;SDS011;17458;48.958;8.284;2024-01-16T08:07:17;11.73;;;8.13;;
30707;SDS011;17458;48.958;8.284;2024-01-16T08:10:01;11.93;;;8.77;;
30707;SDS011;17458;48.958;8.284;2024-01-16T08:12:45;9.67;;;7.63;;
30707;SDS011;17458;48.958;8.284;2024-01-16T08:15:29;13.57;;;9.20;;
30707;SDS011;17458;48.958;8.284;2024-01-16T08:18:13;10.10;;;8.70;;
30707;SDS011;17458;48.958;8.284;2024-01-16T08:20:59;10.27;;;7.30;;
30707;SDS011;17458;48.958;8.284;2024-01-16T08:23:43;8.27;;;7.33;;
30707;SDS011;17458;48.958;8.284;2024-01-16T08:26:27;12.50;;;7.87;;
30707;SDS011;17458;48.958;8.284;2024-01-16T08:29:12;9.97;;;6.77;;
30707;SDS011;17458;48.958;8.284;2024-01-16T08:31:56;11.43;;;8.07;;
30707;SDS011;17458;48.958;8.284;2024-01-16T08:34:40;8.13;;;6.63;;
30707;SDS011;17458;48.958;8.284;2024-01-16T08:37:23;11.50;;;7.43;;
30707;SDS011;17458;48.958;8.284;2024-01-16T08:40:09;12.53;;;7.83;;
30707;SDS011;17458;48.958;8.284;2024-01-16T08:42:55;13.17;;;8.13;;
30707;SDS011;17458;48.958;8.284;2024-01-16T08:45:39;8.63;;;7.67;;
30707;SDS011;17458;48.958;8.284;2024-01-16T08:48:23;11.00;;;8.00;;
30707;SDS011;17458;48.958;8.284;2024-01-16T08:51:07;12.87;;;8.97;;
30707;SDS011;17458;48.958;8.284;2024-01-16T08:53:55;7.93;;;6.80;;
30707;SDS011;17458;48.958;8.284;2024-01-16T08:56:39;16.83;;;7.60;;
30707;SDS011;17458;48.958;8.284;2024-01-16T08:59:23;11.30;;;7.87;;
30707;SDS011;17458;48.958;8.284;2024-01-16T09:02:08;12.53;;;6.67;;
30707;SDS011;17458;48.958;8.284;2024-01-16T09:04:52;10.07;;;6.70;;
30707;SDS011;17458;48.958;8.284;2024-01-16T09:07:36;14.90;;;8.03;;
30707;SDS011;17458;48.958;8.284;2024-01-16T09:10:20;7.30;;;6.37;;
30707;SDS011;17458;48.958;8.284;2024-01-16T09:13:04;9.37;;;7.23;;
30707;SDS011;17458;48.958;8.284;2024-01-16T09:15:48;14.13;;;8.53;;
30707;SDS011;17458;48.958;8.284;2024-01-16T09:18:33;19.30;;;10.57;;
30707;SDS011;17458;48.958;8.284;2024-01-16T09:21:17;13.27;;;8.37;;
30707;SDS011;17458;48.958;8.284;2024-01-16T09:24:04;12.70;;;8.50;;
30707;SDS011;17458;48.958;8.284;2024-01-16T09:26:48;19.07;;;10.57;;
30707;SDS011;17458;48.958;8.284;2024-01-16T09:29:32;18.23;;;7.37;;
30707;SDS011;17458;48.958;8.284;2024-01-16T09:32:16;14.27;;;8.17;;
30707;SDS011;17458;48.958;8.284;2024-01-16T09:35:01;8.50;;;7.50;;
30707;SDS011;17458;48.958;8.284;2024-01-16T09:37:48;14.53;;;9.20;;
30707;SDS011;17458;48.958;8.284;2024-01-16T09:40:32;16.97;;;8.23;;
30707;SDS011;17458;48.958;8.284;2024-01-16T09:43:15;12.33;;;7.87;;
30707;SDS011;17458;48.958;8.284;2024-01-16T09:46:00;9.83;;;7.43;;
30707;SDS011;17458;48.958;8.284;2024-01-16T09:48:48;14.57;;;8.07;;
30707;SDS011;17458;48.958;8.284;2024-01-16T09:51:35;7.87;;;6.70;;
30707;SDS011;17458;48.958;8.284;2024-01-16T09:54:19;13.73;;;8.37;;
30707;SDS011;17458;48.958;8.284;2024-01-16T09:57:03;12.77;;;8.27;;
30707;SDS011;17458;48.958;8.284;2024-01-16T09:59:50;13.83;;;7.03;;
30707;SDS011;17458;48.958;8.284;2024-01-16T10:02:35;8.43;;;6.78;;
30707;SDS011;17458;48.958;8.284;2024-01-16T10:05:19;9.17;;;6.43;;
30707;SDS011;17458;48.958;8.284;2024-01-16T10:08:04;10.37;;;7.37;;
30707;SDS011;17458;48.958;8.284;2024-01-16T10:10:48;14.87;;;8.87;;
30707;SDS011;17458;48.958;8.284;2024-01-16T10:13:32;12.75;;;6.95;;
30707;SDS011;17458;48.958;8.284;2024-01-16T10:16:16;11.00;;;7.13;;
30707;SDS011;17458;48.958;8.284;2024-01-16T10:19:03;9.30;;;6.30;;
30707;SDS011;17458;48.958;8.284;2024-01-16T10:21:48;8.98;;;6.93;;
30707;SDS011;17458;48.958;8.284;2024-01-16T10:24:32;11.43;;;7.43;;
30707;SDS011;17458;48.958;8.284;2024-01-16T10:27:19;9.25;;;6.50;;
30707;SDS011;17458;48.958;8.284;2024-01-16T10:30:04;8.60;;;6.45;;
30707;SDS011;17458;48.958;8.284;2024-01-16T10:32:49;10.68;;;6.03;;
30707;SDS011;17458;48.958;8.284;2024-01-16T10:35:33;9.52;;;6.60;;
30707;SDS011;17458;48.958;8.284;2024-01-16T10:38:20;14.10;;;7.47;;
30707;SDS011;17458;48.958;8.284;2024-01-16T10:41:10;10.43;;;7.55;;
30707;SDS011;17458;48.958;8.284;2024-01-16T10:44:04;8.35;;;5.30;;
30707;SDS011;17458;48.958;8.284;2024-01-16T10:46:50;11.13;;;7.22;;
30707;SDS011;17458;48.958;8.284;2024-01-16T10:49:34;19.38;;;6.82;;
30707;SDS011;17458;48.958;8.284;2024-01-16T10:52:18;21.95;;;9.20;;
30707;SDS011;17458;48.958;8.284;2024-01-16T10:55:03;13.55;;;7.93;;
30707;SDS011;17458;48.958;8.284;2024-01-16T10:57:49;15.00;;;7.13;;
30707;SDS011;17458;48.958;8.284;2024-01-16T11:00:34;11.35;;;8.10;;
30707;SDS011;17458;48.958;8.284;2024-01-16T11:03:24;13.40;;;7.45;;
30707;SDS011;17458;48.958;8.284;2024-01-16T11:06:11;12.30;;;6.30;;
30707;SDS011;17458;48.958;8.284;2024-01-16T11:08:59;11.57;;;6.90;;
30707;SDS011;17458;48.958;8.284;2024-01-16T11:11:44;8.75;;;7.07;;
30707;SDS011;17458;48.958;8.284;2024-01-16T11:14:30;10.95;;;6.50;;
30707;SDS011;17458;48.958;8.284;2024-01-16T11:17:15;9.43;;;6.13;;
30707;SDS011;17458;48.958;8.284;2024-01-16T11:20:02;13.50;;;6.55;;
30707;SDS011;17458;48.958;8.284;2024-01-16T11:22:50;11.20;;;7.70;;
30707;SDS011;17458;48.958;8.284;2024-01-16T11:25:34;12.05;;;6.80;;
30707;SDS011;17458;48.958;8.284;2024-01-16T11:28:18;8.18;;;6.20;;
30707;SDS011;17458;48.958;8.284;2024-01-16T11:31:26;11.65;;;6.90;;
30707;SDS011;17458;48.958;8.284;2024-01-16T11:34:16;8.85;;;6.13;;
30707;SDS011;17458;48.958;8.284;2024-01-16T11:37:27;8.93;;;5.85;;
30707;SDS011;17458;48.958;8.284;2024-01-16T11:46:19;9.88;;;6.25;;
30707;SDS011;17458;48.958;8.284;2024-01-16T11:49:03;8.05;;;6.07;;
30707;SDS011;17458;48.958;8.284;2024-01-16T11:51:47;8.45;;;6.40;;
30707;SDS011;17458;48.958;8.284;2024-01-16T11:54:31;11.93;;;6.10;;
30707;SDS011;17458;48.958;8.284;2024-01-16T12:00:37;8.75;;;5.90;;
30707;SDS011;17458;48.958;8.284;2024-01-16T12:03:25;9.88;;;6.05;;
30707;SDS011;17458;48.958;8.284;2024-01-16T12:06:09;9.05;;;5.45;;
30707;SDS011;17458;48.958;8.284;2024-01-16T12:08:53;8.77;;;6.40;;
30707;SDS011;17458;48.958;8.284;2024-01-16T12:11:37;10.80;;;6.25;;
30707;SDS011;17458;48.958;8.284;2024-01-16T12:14:21;10.98;;;5.35;;
30707;SDS011;17458;48.958;8.284;2024-01-16T12:17:08;8.38;;;5.15;;
30707;SDS011;17458;48.958;8.284;2024-01-16T12:19:56;7.30;;;5.50;;
30707;SDS011;17458;48.958;8.284;2024-01-16T12:22:40;9.05;;;6.18;;
30707;SDS011;17458;48.958;8.284;2024-01-16T12:25:28;10.00;;;6.35;;
30707;SDS011;17458;48.958;8.284;2024-01-16T12:28:14;11.82;;;6.97;;
30707;SDS011;17458;48.958;8.284;2024-01-16T12:31:03;14.15;;;5.72;;
30707;SDS011;17458;48.958;8.284;2024-01-16T12:33:49;9.38;;;6.13;;
30707;SDS011;17458;48.958;8.284;2024-01-16T12:36:33;8.25;;;6.05;;
30707;SDS011;17458;48.958;8.284;2024-01-16T12:39:18;8.60;;;5.05;;
30707;SDS011;17458;48.958;8.284;2024-01-16T12:42:02;6.22;;;5.07;;
30707;SDS011;17458;48.958;8.284;2024-01-16T12:44:47;6.32;;;5.10;;
30707;SDS011;17458;48.958;8.284;2024-01-16T12:47:31;6.68;;;5.22;;
30707;SDS011;17458;48.958;8.284;2024-01-16T12:50:22;6.72;;;5.45;;
30707;SDS011;17458;48.958;8.284;2024-01-16T12:53:08;12.23;;;6.22;;
30707;SDS011;17458;48.958;8.284;2024-01-16T12:56:00;9.55;;;5.00;;
30707;SDS011;17458;48.958;8.284;2024-01-16T12:58:45;6.25;;;4.30;;
30707;SDS011;17458;48.958;8.284;2024-01-16T13:01:30;6.40;;;4.70;;
30707;SDS011;17458;48.958;8.284;2024-01-16T13:04:16;10.68;;;5.07;;
30707;SDS011;17458;48.958;8.284;2024-01-16T13:07:01;11.07;;;5.07;;
30707;SDS011;17458;48.958;8.284;2024-01-16T13:09:46;9.20;;;6.50;;
30707;SDS011;17458;48.958;8.284;2024-01-16T13:12:30;6.85;;;5.13;;
30707;SDS011;17458;48.958;8.284;2024-01-16T13:15:17;16.08;;;5.85;;
30707;SDS011;17458;48.958;8.284;2024-01-16T13:18:01;9.65;;;5.55;;
30707;SDS011;17458;48.958;8.284;2024-01-16T13:20:45;8.30;;;5.60;;
30707;SDS011;17458;48.958;8.284;2024-01-16T13:23:29;9.48;;;5.05;;
30707;SDS011;17458;48.958;8.284;2024-01-16T13:26:13;7.15;;;4.93;;
30707;SDS011;17458;48.958;8.284;2024-01-16T13:28:58;10.98;;;5.53;;
30707;SDS011;17458;48.958;8.284;2024-01-16T13:31:42;14.60;;;5.85;;
30707;SDS011;17458;48.958;8.284;2024-01-16T13:34:27;9.13;;;6.00;;
30707;SDS011;17458;48.958;8.284;2024-01-16T13:37:11;11.95;;;6.03;;
30707;SDS011;17458;48.958;8.284;2024-01-16T13:40:04;9.50;;;5.22;;
30707;SDS011;17458;48.958;8.284;2024-01-16T13:42:53;12.68;;;5.15;;
30707;SDS011;17458;48.958;8.284;2024-01-16T13:45:37;7.40;;;5.53;;
30707;SDS011;17458;48.958;8.284;2024-01-16T13:48:22;7.43;;;4.85;;
30707;SDS011;17458;48.958;8.284;2024-01-16T13:51:06;11.02;;;4.97;;
30707;SDS011;17458;48.958;8.284;2024-01-16T13:53:51;7.60;;;4.60;;
30707;SDS011;17458;48.958;8.284;2024-01-16T13:56:35;7.63;;;4.38;;
30707;SDS011;17458;48.958;8.284;2024-01-16T13:59:19;4.65;;;3.83;;
30707;SDS011;17458;48.958;8.284;2024-01-16T14:02:03;7.43;;;4.10;;
30707;SDS011;17458;48.958;8.284;2024-01-16T14:04:48;8.63;;;3.65;;
30707;SDS011;17458;48.958;8.284;2024-01-16T14:07:33;6.32;;;3.90;;
30707;SDS011;17458;48.958;8.284;2024-01-16T14:10:17;8.00;;;3.90;;
30707;SDS011;17458;48.958;8.284;2024-01-16T14:13:02;4.57;;;3.53;;
30707;SDS011;17458;48.958;8.284;2024-01-16T14:15:50;7.70;;;3.78;;
30707;SDS011;17458;48.958;8.284;2024-01-16T14:18:34;4.63;;;3.88;;
30707;SDS011;17458;48.958;8.284;2024-01-16T14:21:18;11.43;;;4.25;;
30707;SDS011;17458;48.958;8.284;2024-01-16T14:24:02;6.97;;;4.07;;
30707;SDS011;17458;48.958;8.284;2024-01-16T14:26:47;4.97;;;4.15;;
30707;SDS011;17458;48.958;8.284;2024-01-16T14:29:31;12.23;;;3.67;;
30707;SDS011;17458;48.958;8.284;2024-01-16T14:32:17;12.52;;;3.95;;
30707;SDS011;17458;48.958;8.284;2024-01-16T14:35:01;4.30;;;3.58;;
30707;SDS011;17458;48.958;8.284;2024-01-16T14:37:48;11.43;;;5.05;;
30707;SDS011;17458;48.958;8.284;2024-01-16T14:40:32;14.00;;;5.05;;
30707;SDS011;17458;48.958;8.284;2024-01-16T14:43:16;11.10;;;4.10;;
30707;SDS011;17458;48.958;8.284;2024-01-16T14:46:00;7.07;;;3.95;;
30707;SDS011;17458;48.958;8.284;2024-01-16T14:48:47;4.95;;;3.90;;
30707;SDS011;17458;48.958;8.284;2024-01-16T14:51:31;3.63;;;3.33;;
30707;SDS011;17458;48.958;8.284;2024-01-16T14:54:16;7.00;;;4.32;;
30707;SDS011;17458;48.958;8.284;2024-01-16T14:57:00;3.88;;;3.58;;
30707;SDS011;17458;48.958;8.284;2024-01-16T14:59:44;5.88;;;3.65;;
30707;SDS011;17458;48.958;8.284;2024-01-16T15:02:29;4.60;;;3.88;;
30707;SDS011;17458;48.958;8.284;2024-01-16T15:05:13;4.50;;;3.80;;
30707;SDS011;17458;48.958;8.284;2024-01-16T15:07:58;9.07;;;4.30;;
30707;SDS011;17458;48.958;8.284;2024-01-16T15:10:42;6.18;;;4.30;;
30707;SDS011;17458;48.958;8.284;2024-01-16T15:13:26;7.18;;;4.78;;
30707;SDS011;17458;48.958;8.284;2024-01-16T15:16:10;9.73;;;5.90;;
30707;SDS011;17458;48.958;8.284;2024-01-16T15:18:54;8.65;;;4.68;;
30707;SDS011;17458;48.958;8.284;2024-01-16T15:21:40;4.20;;;3.63;;
30707;SDS011;17458;48.958;8.284;2024-01-16T15:24:24;7.07;;;5.03;;
30707;SDS011;17458;48.958;8.284;2024-01-16T15:27:12;4.60;;;4.18;;
30707;SDS011;17458;48.958;8.284;2024-01-16T15:29:56;6.70;;;3.95;;
30707;SDS011;17458;48.958;8.284;2024-01-16T15:32:42;11.00;;;4.50;;
30707;SDS011;17458;48.958;8.284;2024-01-16T15:35:26;14.25;;;5.25;;
30707;SDS011;17458;48.958;8.284;2024-01-16T15:38:09;11.70;;;6.10;;
30707;SDS011;17458;48.958;8.284;2024-01-16T15:40:54;10.75;;;7.32;;
30707;SDS011;17458;48.958;8.284;2024-01-16T15:43:38;12.77;;;6.93;;
30707;SDS011;17458;48.958;8.284;2024-01-16T15:46:23;14.10;;;7.43;;
30707;SDS011;17458;48.958;8.284;2024-01-16T15:49:07;8.02;;;6.70;;
30707;SDS011;17458;48.958;8.284;2024-01-16T15:51:51;9.88;;;6.35;;
30707;SDS011;17458;48.958;8.284;2024-01-16T15:54:36;9.40;;;6.97;;
30707;SDS011;17458;48.958;8.284;2024-01-16T15:57:20;12.93;;;7.53;;
30707;SDS011;17458;48.958;8.284;2024-01-16T16:00:05;13.85;;;5.45;;
30707;SDS011;17458;48.958;8.284;2024-01-16T16:02:52;12.38;;;6.20;;
30707;SDS011;17458;48.958;8.284;2024-01-16T16:05:36;14.25;;;6.93;;
30707;SDS011;17458;48.958;8.284;2024-01-16T16:08:20;14.40;;;6.28;;
30707;SDS011;17458;48.958;8.284;2024-01-16T16:11:05;8.68;;;5.78;;
30707;SDS011;17458;48.958;8.284;2024-01-16T16:13:48;10.75;;;4.80;;
30707;SDS011;17458;48.958;8.284;2024-01-16T16:16:32;9.55;;;5.93;;
30707;SDS011;17458;48.958;8.284;2024-01-16T16:19:17;4.37;;;4.00;;
30707;SDS011;17458;48.958;8.284;2024-01-16T16:22:01;10.45;;;5.57;;
30707;SDS011;17458;48.958;8.284;2024-01-16T16:24:47;8.38;;;4.55;;
30707;SDS011;17458;48.958;8.284;2024-01-16T16:27:31;9.93;;;4.68;;
30707;SDS011;17458;48.958;8.284;2024-01-16T16:30:14;5.20;;;4.70;;
30707;SDS011;17458;48.958;8.284;2024-01-16T16:32:58;6.03;;;4.47;;
30707;SDS011;17458;48.958;8.284;2024-01-16T16:35:42;6.32;;;5.07;;